Time;durP1;ratioP1;P1;durP2;ratioP2;P2;SDS_P1;SDS_P2;PMS_P1;PMS_P2;Temp;Humidity;BMP_temperature;BMP_pressure;BME280_temperature;BME280_humidity;BME280_pressure;Samples;Min_cycle;Max_cycle;Signal;HPM_P1;HPM_P2
2022/09/02 00:02:14;;;;;;;2.33;0.80;;;;;;;17.46;54.44;101764.22;5000624;28;20151;-80
2022/09/02 00:04:39;;;;;;;0.68;0.60;;;;;;;17.40;54.32;101765.41;5017808;28;20080;-80
2022/09/02 00:07:04;;;;;;;1.67;0.70;;;;;;;17.40;54.78;101759.25;5016623;28;20033;-80
2022/09/02 00:09:30;;;;;;;0.77;0.60;;;;;;;17.37;54.30;101755.00;5018003;28;20037;-80
2022/09/02 00:11:56;;;;;;;0.68;0.63;;;;;;;17.39;54.58;101758.41;5000335;28;20056;-80
2022/09/02 00:14:32;;;;;;;0.50;0.50;;;;;;;17.39;54.70;101757.53;5016927;28;20026;-80
2022/09/02 00:16:59;;;;;;;0.85;0.80;;;;;;;17.36;54.72;101755.94;5017786;28;20088;-80
2022/09/02 00:19:26;;;;;;;1.90;0.60;;;;;;;17.33;54.58;101753.44;5000690;28;20048;-80
2022/09/02 00:21:54;;;;;;;1.05;0.60;;;;;;;17.34;54.72;101752.50;5016223;28;20037;-80
2022/09/02 00:24:20;;;;;;;0.93;0.60;;;;;;;17.36;55.05;101750.63;5016523;28;20037;-80
2022/09/02 00:26:46;;;;;;;1.58;0.80;;;;;;;17.35;54.88;101746.25;5000296;28;20048;-80
2022/09/02 00:29:14;;;;;;;1.00;0.70;;;;;;;17.35;54.92;101746.25;5017859;28;20033;-80
2022/09/02 00:31:43;;;;;;;1.63;0.75;;;;;;;17.31;54.71;101744.72;5015993;28;20116;-80
2022/09/02 00:34:09;;;;;;;2.67;0.90;;;;;;;17.29;54.99;101745.75;5000550;28;20041;-80
2022/09/02 00:36:35;;;;;;;2.15;0.90;;;;;;;17.25;54.84;101737.13;5017837;28;20276;-80
2022/09/02 00:39:06;;;;;;;0.73;0.73;;;;;;;17.23;55.06;101742.50;5015373;28;20056;-80
2022/09/02 00:41:33;;;;;;;0.82;0.70;;;;;;;17.21;55.37;101736.44;5017753;28;20114;-80
2022/09/02 00:44:02;;;;;;;0.90;0.90;;;;;;;17.20;55.66;101729.44;5016455;28;20137;-80
2022/09/02 00:46:31;;;;;;;0.98;0.98;;;;;;;17.21;55.43;101727.66;5017516;28;20033;-80
2022/09/02 00:48:56;;;;;;;0.82;0.70;;;;;;;17.22;55.59;101737.28;5017238;28;20033;-80
2022/09/02 00:51:22;;;;;;;0.90;0.80;;;;;;;17.22;55.78;101730.19;5016407;28;20140;-80
2022/09/02 00:53:49;;;;;;;1.40;0.80;;;;;;;17.24;55.79;101732.75;5015653;28;20042;-80
2022/09/02 00:56:28;;;;;;;0.70;0.70;;;;;;;17.24;55.64;101728.31;5017419;28;20042;-80
2022/09/02 00:58:54;;;;;;;1.20;0.70;;;;;;;17.25;55.90;101729.19;5017444;28;20034;-80
2022/09/02 01:01:21;;;;;;;0.80;0.80;;;;;;;17.24;55.71;101719.53;5036801;28;20041;-80
2022/09/02 01:03:47;;;;;;;1.10;1.00;;;;;;;17.24;55.71;101727.47;5036691;28;20035;-80
2022/09/02 01:06:14;;;;;;;1.90;0.90;;;;;;;17.24;55.85;101722.19;5037078;28;20033;-80
2022/09/02 01:08:46;;;;;;;1.35;0.70;;;;;;;17.23;55.98;101723.97;5018651;28;20339;-80
2022/09/02 01:11:12;;;;;;;0.85;0.80;;;;;;;17.24;56.03;101714.22;5018967;28;20240;-80
2022/09/02 01:13:40;;;;;;;0.82;0.73;;;;;;;17.22;55.90;101716.97;5036946;28;20037;-80
2022/09/02 01:16:23;;;;;;;0.80;0.80;;;;;;;17.21;55.79;101715.28;5036779;28;20338;-80
2022/09/02 01:18:51;;;;;;;0.65;0.63;;;;;;;17.21;55.80;101717.06;5036553;28;20029;-80
2022/09/02 01:21:18;;;;;;;0.98;0.90;;;;;;;17.19;55.93;101721.56;5018935;28;20140;-80
2022/09/02 01:23:46;;;;;;;0.80;0.75;;;;;;;17.18;55.90;101719.88;5036319;28;20033;-80
2022/09/02 01:26:11;;;;;;;2.58;0.80;;;;;;;17.17;55.85;101712.84;5001734;28;20056;-80
2022/09/02 01:28:37;;;;;;;0.70;0.70;;;;;;;17.16;55.90;101713.81;5018151;28;20328;-80
2022/09/02 01:31:02;;;;;;;0.75;0.73;;;;;;;17.14;55.71;101711.25;5036126;28;20041;-80
2022/09/02 01:33:28;;;;;;;0.70;0.70;;;;;;;17.11;55.69;101714.06;5017881;28;20363;-79
2022/09/02 01:35:53;;;;;;;1.35;0.77;;;;;;;17.09;55.53;101708.00;5036850;28;20033;-80
2022/09/02 01:38:20;;;;;;;0.65;0.65;;;;;;;17.06;55.56;101706.38;5018262;28;20213;-80
2022/09/02 01:40:46;;;;;;;0.82;0.70;;;;;;;17.03;55.68;101706.53;5017877;28;20037;-80
2022/09/02 01:43:16;;;;;;;0.80;0.73;;;;;;;17.02;55.69;101703.97;5036164;28;20033;-80
2022/09/02 01:45:43;;;;;;;0.77;0.77;;;;;;;17.01;56.00;101705.75;5016005;28;20103;-80
2022/09/02 01:48:10;;;;;;;0.75;0.73;;;;;;;16.98;55.85;101705.06;5016362;28;20045;-80
2022/09/02 01:50:38;;;;;;;1.17;0.65;;;;;;;16.97;55.65;101698.06;5034199;28;20329;-80
2022/09/02 01:53:04;;;;;;;0.73;0.60;;;;;;;16.95;55.87;101698.13;5036342;28;20033;-80
2022/09/02 01:55:30;;;;;;;0.70;0.60;;;;;;;16.94;55.87;101704.38;5035673;28;20055;-80
2022/09/02 01:57:56;;;;;;;1.45;1.10;;;;;;;16.92;56.18;101700.09;5018557;28;20100;-80
2022/09/02 02:00:22;;;;;;;1.27;0.70;;;;;;;16.89;56.14;101698.47;5035412;28;20336;-80
2022/09/02 02:02:48;;;;;;;0.93;0.80;;;;;;;16.87;55.98;101695.91;5035967;28;20203;-80
2022/09/02 02:05:14;;;;;;;2.50;0.70;;;;;;;16.83;56.05;101689.09;5017429;28;20044;-80
2022/09/02 02:07:41;;;;;;;1.00;0.80;;;;;;;16.83;56.50;101696.19;5017723;28;20341;-80
2022/09/02 02:10:09;;;;;;;0.95;0.90;;;;;;;16.81;56.44;101687.44;5035714;28;20260;-80
2022/09/02 02:12:35;;;;;;;0.80;0.80;;;;;;;16.79;56.12;101690.16;5001393;28;20329;-80
2022/09/02 02:15:06;;;;;;;0.70;0.70;;;;;;;16.77;56.60;101686.75;5035296;28;20037;-80
2022/09/02 02:17:32;;;;;;;1.17;0.77;;;;;;;16.76;56.51;101687.66;5017349;28;20061;-80
2022/09/02 02:19:57;;;;;;;1.25;0.70;;;;;;;16.75;56.29;101688.59;5035330;28;20340;-80
2022/09/02 02:22:24;;;;;;;0.80;0.80;;;;;;;16.73;56.59;101689.63;5001098;28;20104;-80
2022/09/02 02:24:49;;;;;;;1.92;0.85;;;;;;;16.72;56.63;101690.53;5036124;28;20296;-80
2022/09/02 02:27:14;;;;;;;1.02;0.80;;;;;;;16.69;56.46;101684.47;5018030;28;20025;-80
2022/09/02 02:29:40;;;;;;;1.23;0.80;;;;;;;16.69;56.39;101687.13;5017422;28;20045;-81
2022/09/02 02:32:06;;;;;;;0.77;0.77;;;;;;;16.67;56.45;101681.06;5017286;28;20053;-81
2022/09/02 02:34:32;;;;;;;1.08;0.80;;;;;;;16.66;56.60;101676.72;5034896;28;20355;-81
2022/09/02 02:36:58;;;;;;;2.65;0.70;;;;;;;16.65;56.83;101672.38;5035588;28;20067;-81
2022/09/02 02:39:24;;;;;;;0.85;0.75;;;;;;;16.63;56.84;101676.88;5016844;28;20277;-81
2022/09/02 02:41:49;;;;;;;1.70;0.90;;;;;;;16.61;56.68;101670.84;5001029;28;20078;-81
2022/09/02 02:44:15;;;;;;;0.98;0.93;;;;;;;16.60;57.09;101668.25;5034786;28;20068;-81
2022/09/02 02:46:41;;;;;;;0.93;0.75;;;;;;;16.58;56.91;101670.97;5034623;28;20254;-81
2022/09/02 02:49:06;;;;;;;1.23;1.02;;;;;;;16.56;56.96;101672.84;5035083;28;20092;-81
2022/09/02 02:51:33;;;;;;;1.98;0.90;;;;;;;16.56;57.19;101672.00;5034648;28;20315;-81
2022/09/02 02:53:59;;;;;;;0.90;0.80;;;;;;;16.53;57.41;101667.72;5016965;28;20305;-81
2022/09/02 02:56:24;;;;;;;2.50;1.00;;;;;;;16.51;57.31;101667.78;4999915;28;20146;-81
2022/09/02 02:58:50;;;;;;;1.40;0.80;;;;;;;16.50;57.35;101668.75;5034703;28;20055;-81
2022/09/02 03:01:15;;;;;;;0.93;0.90;;;;;;;16.49;57.65;101664.38;4992777;28;20065;-81
2022/09/02 03:03:42;;;;;;;1.17;0.70;;;;;;;16.49;57.65;101663.53;5011516;28;20045;-81
2022/09/02 03:06:07;;;;;;;0.85;0.80;;;;;;;16.48;57.37;101665.34;5013415;28;20053;-81
2022/09/02 03:08:35;;;;;;;3.35;0.95;;;;;;;16.46;57.81;101659.28;4996718;28;20038;-81
2022/09/02 03:11:01;;;;;;;1.15;0.98;;;;;;;16.45;57.43;101662.00;5013374;28;20033;-81
2022/09/02 03:13:27;;;;;;;1.05;0.95;;;;;;;16.44;57.48;101661.13;5013366;28;20117;-81
2022/09/02 03:15:53;;;;;;;1.20;0.82;;;;;;;16.43;57.74;101651.50;5014249;28;20029;-81
2022/09/02 03:18:18;;;;;;;0.73;0.73;;;;;;;16.42;57.92;101654.22;5013252;28;20334;-81
2022/09/02 03:20:44;;;;;;;2.45;0.77;;;;;;;16.40;57.89;101650.81;5012893;28;20245;-81
2022/09/02 03:23:11;;;;;;;0.77;0.77;;;;;;;16.39;57.57;101649.06;5013300;28;20304;-80
2022/09/02 03:25:41;;;;;;;0.93;0.70;;;;;;;16.38;57.91;101652.69;5012002;28;20233;-81
2022/09/02 03:28:06;;;;;;;2.63;0.90;;;;;;;16.36;57.83;101658.03;5013258;28;20061;-81
2022/09/02 03:30:34;;;;;;;2.08;0.70;;;;;;;16.33;57.94;101650.25;5014142;28;20210;-81
2022/09/02 03:33:01;;;;;;;2.40;1.25;;;;;;;16.31;58.16;101649.50;5014006;28;20045;-81
2022/09/02 03:35:27;;;;;;;2.90;0.90;;;;;;;16.30;58.42;101650.44;5014040;28;20332;-81
2022/09/02 03:37:53;;;;;;;0.77;0.77;;;;;;;16.28;58.39;101647.88;5012939;28;20108;-81
2022/09/02 03:40:23;;;;;;;0.70;0.70;;;;;;;16.26;58.37;101646.22;5014044;28;20241;-81
2022/09/02 03:42:49;;;;;;;0.82;0.80;;;;;;;16.25;58.53;101647.16;5014795;28;20323;-81
2022/09/02 03:45:15;;;;;;;1.10;1.00;;;;;;;16.22;58.63;101642.88;5014160;28;20045;-81
2022/09/02 03:47:49;;;;;;;1.70;1.05;;;;;;;16.22;58.24;101647.31;5012304;28;20272;-81
2022/09/02 03:50:20;;;;;;;0.85;0.85;;;;;;;16.18;58.33;101641.34;5014181;28;20034;-81
2022/09/02 03:52:46;;;;;;;1.83;1.00;;;;;;;16.16;58.88;101645.00;5013274;28;20064;-81
2022/09/02 03:55:11;;;;;;;1.17;1.00;;;;;;;16.14;58.61;101637.16;5014018;28;20349;-81
2022/09/02 03:57:37;;;;;;;0.90;0.90;;;;;;;16.12;58.58;101636.38;4996271;28;20026;-81
2022/09/02 04:00:07;;;;;;;1.42;1.17;;;;;;;16.10;58.94;101627.69;5012457;28;20372;-81
2022/09/02 04:02:32;;;;;;;0.77;0.77;;;;;;;16.06;59.06;101634.03;4996122;28;20190;-81
2022/09/02 04:04:58;;;;;;;1.77;0.95;;;;;;;16.03;58.83;101624.50;4996685;28;20052;-81
2022/09/02 04:07:23;;;;;;;2.25;0.90;;;;;;;16.00;58.96;101624.63;5013104;28;20061;-81
2022/09/02 04:09:49;;;;;;;1.00;0.93;;;;;;;15.98;59.19;101623.88;4996383;28;20037;-81
2022/09/02 04:12:15;;;;;;;2.00;1.00;;;;;;;15.97;58.88;101621.28;5012646;28;20305;-81
2022/09/02 04:14:41;;;;;;;1.00;1.00;;;;;;;15.96;59.23;101622.25;5017308;28;20050;-81
2022/09/02 04:17:07;;;;;;;3.45;1.00;;;;;;;15.93;59.11;101625.88;5016019;28;20034;-81
2022/09/02 04:19:32;;;;;;;4.65;1.20;;;;;;;15.89;59.31;101619.91;5017720;28;20032;-81
2022/09/02 04:21:58;;;;;;;1.55;1.13;;;;;;;15.88;59.36;101628.78;5017858;28;20311;-80
2022/09/02 04:24:23;;;;;;;1.15;0.88;;;;;;;15.86;59.05;101624.47;5015724;28;20029;-81
2022/09/02 04:26:49;;;;;;;1.15;0.73;;;;;;;15.84;59.33;101623.72;5015734;28;20233;-81
2022/09/02 04:29:14;;;;;;;0.70;0.70;;;;;;;15.83;59.56;101614.94;4999459;28;20103;-81
2022/09/02 04:31:40;;;;;;;2.88;1.08;;;;;;;15.81;59.19;101613.28;5016044;28;20030;-81
2022/09/02 04:34:06;;;;;;;1.20;0.90;;;;;;;15.78;59.51;101610.81;5015225;28;20034;-81
2022/09/02 04:36:31;;;;;;;1.33;1.00;;;;;;;15.72;59.63;101614.59;4998248;28;20601;-81
2022/09/02 04:38:58;;;;;;;1.13;0.90;;;;;;;15.69;59.66;101606.81;5015496;28;20045;-81
2022/09/02 04:41:27;;;;;;;2.75;1.00;;;;;;;15.65;59.69;101606.13;5016652;28;20048;-81
2022/09/02 04:43:55;;;;;;;4.70;1.17;;;;;;;15.62;59.71;101600.13;5011713;28;20112;-81
2022/09/02 04:46:21;;;;;;;5.32;1.25;;;;;;;15.58;60.00;101607.34;4996532;28;20233;-81
2022/09/02 04:48:47;;;;;;;1.10;1.08;;;;;;;15.53;59.61;101607.59;5013746;28;20379;-81
2022/09/02 04:51:15;;;;;;;1.20;1.10;;;;;;;15.49;59.70;101602.53;5014750;28;20130;-81
2022/09/02 04:53:43;;;;;;;1.17;1.05;;;;;;;15.43;59.80;101601.03;4998786;28;20416;-80
2022/09/02 04:56:13;;;;;;;2.63;1.05;;;;;;;15.40;59.93;101603.81;5014166;28;20399;-81
2022/09/02 04:58:40;;;;;;;2.60;1.00;;;;;;;15.38;59.93;101604.84;5015407;28;20233;-81
2022/09/02 05:01:08;;;;;;;2.15;1.13;;;;;;;15.36;59.91;101604.91;5033600;28;20057;-81
2022/09/02 05:03:34;;;;;;;6.53;1.17;;;;;;;15.36;59.91;101607.56;5017689;28;20060;-81
2022/09/02 05:06:02;;;;;;;1.02;0.98;;;;;;;15.33;60.06;101605.94;5036014;28;20105;-81
2022/09/02 05:08:27;;;;;;;1.30;1.20;;;;;;;15.31;60.09;101604.28;5017314;28;20060;-81
2022/09/02 05:10:53;;;;;;;3.28;1.10;;;;;;;15.35;60.28;101604.06;4998163;28;20367;-81
2022/09/02 05:13:18;;;;;;;1.55;0.80;;;;;;;15.38;59.95;101608.31;5016716;28;20037;-81
2022/09/02 05:15:44;;;;;;;0.95;0.85;;;;;;;15.40;60.07;101614.38;5015047;28;20065;-81
2022/09/02 05:18:10;;;;;;;2.55;0.93;;;;;;;15.40;59.78;101610.91;4996765;28;20041;-81
2022/09/02 05:20:42;;;;;;;0.90;0.90;;;;;;;15.38;60.17;101604.84;5016897;28;20025;-81
2022/09/02 05:23:08;;;;;;;1.63;1.02;;;;;;;15.35;59.88;101613.75;5019120;28;20048;-81
2022/09/02 05:25:36;;;;;;;1.27;0.82;;;;;;;15.34;60.20;101614.69;5005485;28;20045;-82
2022/09/02 05:28:02;;;;;;;1.30;1.20;;;;;;;15.26;60.28;101607.16;5040935;28;20037;-81
2022/09/02 05:30:27;;;;;;;0.85;0.85;;;;;;;15.29;60.32;101611.41;5023351;28;20037;-81
2022/09/02 05:32:53;;;;;;;1.05;0.93;;;;;;;15.28;60.29;101613.22;5023399;28;20056;-81
2022/09/02 05:35:18;;;;;;;6.22;1.00;;;;;;;15.28;60.03;101617.59;5034829;28;20049;-81
2022/09/02 05:37:44;;;;;;;3.60;1.10;;;;;;;15.26;60.26;101611.56;5018713;28;20037;-82
2022/09/02 05:40:11;;;;;;;0.98;0.90;;;;;;;15.21;60.58;101617.06;5005870;28;20040;-80
2022/09/02 05:42:37;;;;;;;2.08;0.88;;;;;;;15.18;60.79;101613.72;5006632;28;20221;-81
2022/09/02 05:45:03;;;;;;;2.67;1.10;;;;;;;15.20;60.58;101603.94;5011306;28;20412;-81
2022/09/02 05:47:29;;;;;;;2.70;1.10;;;;;;;15.14;60.71;101607.72;5025475;28;20060;-81
2022/09/02 05:49:54;;;;;;;3.10;1.25;;;;;;;15.12;60.92;101605.16;5022308;28;20417;-81
2022/09/02 05:52:20;;;;;;;1.98;1.20;;;;;;;15.08;60.92;101606.25;5006236;28;20118;-80
2022/09/02 05:54:46;;;;;;;1.95;1.25;;;;;;;15.06;61.09;101607.22;5021550;28;20048;-81
2022/09/02 05:57:13;;;;;;;3.13;1.20;;;;;;;15.01;61.29;101610.09;5000988;28;20356;-81
2022/09/02 05:59:41;;;;;;;3.72;1.17;;;;;;;15.04;61.34;101603.81;5033570;28;20057;-81
2022/09/02 06:02:11;;;;;;;1.13;1.00;;;;;;;15.04;61.08;101606.44;5016384;28;20032;-81
2022/09/02 06:04:42;;;;;;;1.30;1.02;;;;;;;15.06;61.31;101607.22;5015822;28;20029;-81
2022/09/02 06:07:07;;;;;;;2.15;1.30;;;;;;;15.05;61.17;101602.91;5030199;28;20025;-81
2022/09/02 06:09:33;;;;;;;1.17;0.85;;;;;;;15.06;61.62;101601.94;5016205;28;20090;-81
2022/09/02 06:11:59;;;;;;;2.83;0.90;;;;;;;15.06;61.53;101604.59;5034247;28;20096;-81
2022/09/02 06:14:26;;;;;;;1.08;0.90;;;;;;;15.06;61.77;101608.09;5015570;28;20314;-81
2022/09/02 06:16:53;;;;;;;1.80;1.20;;;;;;;15.08;61.81;101600.09;5016130;28;20037;-81
2022/09/02 06:19:20;;;;;;;1.55;1.10;;;;;;;15.07;62.12;101611.59;5033443;28;20045;-81
2022/09/02 06:21:46;;;;;;;1.30;1.10;;;;;;;15.13;62.23;101608.66;5015435;28;20043;-81
2022/09/02 06:24:12;;;;;;;1.30;1.00;;;;;;;15.15;62.18;101610.31;5026994;28;20112;-81
2022/09/02 06:26:40;;;;;;;6.72;1.27;;;;;;;15.18;61.96;101601.38;5005330;28;20033;-81
2022/09/02 06:29:07;;;;;;;6.05;1.10;;;;;;;15.20;62.18;101604.78;5032664;28;20047;-81
2022/09/02 06:31:33;;;;;;;3.15;1.00;;;;;;;15.19;62.26;101597.81;5023755;28;20279;-81
2022/09/02 06:33:59;;;;;;;1.30;1.17;;;;;;;15.20;62.21;101598.66;5003863;28;20212;-81
2022/09/02 06:36:26;;;;;;;8.68;1.35;;;;;;;15.20;62.59;101598.66;5009097;28;20101;-81
2022/09/02 06:38:54;;;;;;;8.38;1.30;;;;;;;15.20;62.15;101598.66;5035598;28;20220;-81
2022/09/02 06:41:27;;;;;;;7.15;1.45;;;;;;;15.23;62.49;101603.81;5022610;28;20408;-81
2022/09/02 06:43:55;;;;;;;2.08;1.00;;;;;;;15.28;62.26;101600.00;5024090;28;20033;-81
2022/09/02 06:46:25;;;;;;;11.32;1.35;;;;;;;15.25;62.72;101600.16;5024279;28;20033;-81
2022/09/02 06:48:50;;;;;;;3.72;1.25;;;;;;;15.26;62.78;101601.00;5007928;28;20079;-81
2022/09/02 06:51:17;;;;;;;4.55;1.30;;;;;;;15.30;62.59;101594.66;5037747;28;20033;-81
2022/09/02 06:53:42;;;;;;;1.98;1.17;;;;;;;15.30;63.00;101595.50;5024614;28;20098;-81
2022/09/02 06:56:09;;;;;;;6.43;1.40;;;;;;;15.32;62.64;101593.66;5006584;28;20112;-81
2022/09/02 06:58:35;;;;;;;2.30;0.98;;;;;;;15.35;62.45;101595.28;5023463;28;20040;-81
2022/09/02 07:01:00;;;;;;;2.40;1.30;;;;;;;15.34;62.91;101590.94;4991092;28;20061;-81
2022/09/02 07:06:11;;;;;;;7.30;1.23;;;;;;;15.36;63.09;101586.44;5020274;28;20064;-81
2022/09/02 07:08:42;;;;;;;6.18;1.48;;;;;;;15.39;62.99;101581.03;5025068;28;20286;-82
2022/09/02 07:11:19;;;;;;;2.17;1.40;;;;;;;15.43;63.41;101582.56;5008892;28;20033;-81
2022/09/02 07:13:46;;;;;;;2.08;1.52;;;;;;;15.46;63.63;101584.19;5025484;28;20053;-81
2022/09/02 07:16:11;;;;;;;2.17;1.30;;;;;;;15.48;63.63;101580.56;5012805;28;20328;-82
2022/09/02 07:18:37;;;;;;;6.25;1.77;;;;;;;15.54;63.26;101582.03;5023110;28;20064;-81
2022/09/02 07:21:03;;;;;;;3.40;1.63;;;;;;;15.58;63.47;101585.38;5012577;28;20037;-79
2022/09/02 07:23:28;;;;;;;7.22;1.50;;;;;;;15.62;63.61;101584.28;4990892;28;20128;-82
2022/09/02 07:25:54;;;;;;;5.70;1.70;;;;;;;15.62;63.67;101574.56;5007318;28;20052;-79
2022/09/02 07:28:20;;;;;;;2.13;1.60;;;;;;;15.66;63.41;101576.16;5007882;28;20048;-79
2022/09/02 07:30:46;;;;;;;8.90;1.90;;;;;;;15.69;63.37;101575.13;5021367;28;20123;-79
2022/09/02 07:33:12;;;;;;;2.92;1.50;;;;;;;15.72;63.12;101570.56;5007274;28;20103;-82
2022/09/02 07:35:41;;;;;;;1.60;1.50;;;;;;;15.75;63.24;101572.19;5009242;28;20424;-81
2022/09/02 07:38:07;;;;;;;4.78;1.98;;;;;;;15.79;63.14;101568.50;5032201;28;20033;-80
2022/09/02 07:40:35;;;;;;;5.65;1.90;;;;;;;15.82;62.97;101570.97;5029256;28;20061;-80
2022/09/02 07:43:02;;;;;;;3.60;1.90;;;;;;;15.87;62.98;101570.72;5014939;28;20033;-80
2022/09/02 07:45:28;;;;;;;2.30;1.75;;;;;;;15.90;62.92;101568.78;5014745;28;20053;-80
2022/09/02 07:47:53;;;;;;;3.58;2.08;;;;;;;15.94;63.35;101564.22;5033316;28;20053;-81
2022/09/02 07:50:19;;;;;;;2.05;1.65;;;;;;;15.99;63.28;101572.75;5018836;28;20363;-81
2022/09/02 07:52:45;;;;;;;2.92;2.10;;;;;;;16.04;64.10;101564.56;5015316;28;20046;-81
2022/09/02 07:55:11;;;;;;;2.22;1.80;;;;;;;16.10;63.42;101570.41;5019830;28;20052;-81
2022/09/02 07:57:37;;;;;;;6.43;2.58;;;;;;;16.15;62.99;101570.13;5036587;28;20033;-81
2022/09/02 08:00:04;;;;;;;4.55;2.40;;;;;;;16.20;63.28;101568.13;5007992;28;20083;-81
2022/09/02 08:02:29;;;;;;;4.55;1.88;;;;;;;16.26;63.19;101570.47;5035876;28;20037;-81
2022/09/02 08:04:55;;;;;;;3.65;2.00;;;;;;;16.33;62.87;101564.81;5002515;28;20072;-82
2022/09/02 08:07:23;;;;;;;6.82;2.50;;;;;;;16.40;62.95;101576.78;5018671;28;20045;-82
2022/09/02 08:09:50;;;;;;;4.90;1.98;;;;;;;16.46;62.67;101568.50;5019579;28;20258;-79
2022/09/02 08:12:15;;;;;;;4.13;2.53;;;;;;;16.50;62.16;101564.78;5026196;28;20325;-81
2022/09/02 08:14:42;;;;;;;9.63;2.45;;;;;;;16.56;62.33;101560.97;5018742;28;20040;-81
2022/09/02 08:17:07;;;;;;;6.90;1.90;;;;;;;16.61;62.14;101572.16;5036268;28;20041;-81
2022/09/02 08:19:33;;;;;;;3.58;2.78;;;;;;;16.64;62.29;101570.16;5018896;28;20068;-81
2022/09/02 08:22:04;;;;;;;5.28;2.47;;;;;;;16.66;62.02;101557.72;5036525;28;20041;-80
2022/09/02 08:24:31;;;;;;;2.55;2.35;;;;;;;16.68;62.14;101555.84;5035982;28;20048;-80
2022/09/02 08:26:56;;;;;;;4.50;2.42;;;;;;;16.71;62.30;101560.09;4998825;28;20336;-79
2022/09/02 08:29:22;;;;;;;7.35;2.38;;;;;;;16.75;62.19;101563.44;4985801;28;20032;-80
2022/09/02 08:31:47;;;;;;;8.52;2.55;;;;;;;16.79;61.96;101555.25;5017286;28;20406;-79
2022/09/02 08:34:13;;;;;;;6.68;2.75;;;;;;;16.84;62.14;101561.16;5009349;28;20272;-79
2022/09/02 08:36:42;;;;;;;4.22;2.75;;;;;;;16.88;62.10;101559.19;5029701;28;20044;-79
2022/09/02 08:39:08;;;;;;;2.83;2.33;;;;;;;16.92;62.01;101549.28;5002164;28;20026;-80
2022/09/02 08:41:52;;;;;;;2.80;2.35;;;;;;;16.97;62.56;101550.78;5029990;28;20048;-81
2022/09/02 08:44:23;;;;;;;4.75;2.20;;;;;;;17.05;62.35;101548.53;5036008;28;20057;-80
2022/09/02 08:46:53;;;;;;;6.03;2.53;;;;;;;17.12;62.35;101549.03;5017577;28;20239;-80
2022/09/02 08:49:34;;;;;;;3.13;2.65;;;;;;;17.18;62.22;101551.31;5024142;28;20033;-80
2022/09/02 08:52:02;;;;;;;4.35;2.38;;;;;;;17.26;61.91;101543.81;5035272;28;20075;-81
2022/09/02 08:54:46;;;;;;;10.25;2.72;;;;;;;17.31;62.23;101543.53;5035725;28;20017;-81
2022/09/02 08:57:11;;;;;;;4.07;2.40;;;;;;;17.40;61.33;101539.50;5017014;28;20029;-79
2022/09/02 08:59:38;;;;;;;6.20;2.70;;;;;;;17.45;61.02;101538.28;5013673;28;20164;-79
2022/09/02 09:02:12;;;;;;;3.08;2.50;;;;;;;17.55;60.17;101540.41;5014815;28;20038;-79
2022/09/02 09:04:53;;;;;;;4.38;2.60;;;;;;;17.62;59.93;101536.44;5015388;28;20041;-80
2022/09/02 09:07:36;;;;;;;3.85;2.58;;;;;;;17.71;59.40;101541.19;5007682;28;20060;-82
2022/09/02 09:10:12;;;;;;;3.25;2.50;;;;;;;17.75;59.89;101542.69;5015843;28;20034;-81
2022/09/02 09:12:59;;;;;;;2.95;2.35;;;;;;;17.75;60.31;101542.69;5016834;28;20088;-80
2022/09/02 09:15:40;;;;;;;8.52;2.75;;;;;;;17.80;60.60;101542.44;5015465;28;20021;-79
2022/09/02 09:18:10;;;;;;;2.78;2.55;;;;;;;17.86;60.28;101536.78;5015907;28;20297;-80
2022/09/02 09:20:40;;;;;;;4.90;2.60;;;;;;;17.91;59.99;101534.72;5016777;28;20080;-81
2022/09/02 09:23:20;;;;;;;8.82;2.47;;;;;;;17.95;60.43;101538.88;5016662;28;20064;-81
2022/09/02 09:25:49;;;;;;;5.72;2.40;;;;;;;17.97;60.14;101537.03;5016968;28;20257;-80
2022/09/02 09:28:15;;;;;;;7.20;2.20;;;;;;;18.05;59.96;101538.34;5016794;28;20109;-82
2022/09/02 09:30:40;;;;;;;2.78;2.28;;;;;;;18.10;59.95;101530.94;5015068;28;20042;-80
2022/09/02 09:33:05;;;;;;;3.47;2.67;;;;;;;18.12;59.96;101529.94;5016514;28;20041;-79
2022/09/02 09:35:49;;;;;;;6.93;2.60;;;;;;;18.16;60.24;101530.59;4998401;28;20057;-81
2022/09/02 09:38:15;;;;;;;2.70;2.47;;;;;;;18.20;59.92;101527.63;5013327;28;20061;-81
2022/09/02 09:40:40;;;;;;;5.00;2.80;;;;;;;18.23;60.26;101519.50;5010874;28;20405;-81
2022/09/02 09:43:09;;;;;;;5.03;2.42;;;;;;;18.27;60.40;101520.16;5014228;28;20029;-81
2022/09/02 09:45:48;;;;;;;4.97;2.50;;;;;;;18.36;60.46;101513.44;5016446;28;20064;-82
2022/09/02 09:48:28;;;;;;;3.58;2.60;;;;;;;18.49;60.87;101511.72;5015378;28;20132;-81
2022/09/02 09:50:54;;;;;;;5.30;2.70;;;;;;;18.57;60.89;101519.16;5012595;28;20109;-82
2022/09/02 09:53:22;;;;;;;7.22;2.60;;;;;;;18.68;60.62;101514.06;5016282;28;20382;-82
2022/09/02 09:56:05;;;;;;;9.18;2.85;;;;;;;18.78;60.01;101511.66;5016740;28;20358;-81
2022/09/02 09:58:39;;;;;;;3.92;2.72;;;;;;;18.92;59.56;101508.13;4999644;28;20041;-82
2022/09/02 10:01:16;;;;;;;3.33;2.80;;;;;;;18.96;59.71;101507.81;5034183;28;20379;-82
2022/09/02 10:03:48;;;;;;;6.07;3.00;;;;;;;19.05;59.32;101510.84;5022893;28;20051;-82
2022/09/02 10:06:19;;;;;;;2.85;2.65;;;;;;;19.08;59.05;101503.53;5031041;28;20374;-82
2022/09/02 10:08:53;;;;;;;8.48;3.13;;;;;;;19.14;59.53;101512.88;5027871;28;20033;-82
2022/09/02 10:11:21;;;;;;;8.07;3.38;;;;;;;19.18;59.59;101511.72;5029891;28;20029;-82
2022/09/02 10:13:47;;;;;;;3.58;2.90;;;;;;;19.25;58.95;101512.19;5026639;28;20282;-79
2022/09/02 10:16:41;;;;;;;3.33;3.03;;;;;;;19.34;58.38;101503.59;5016771;28;20025;-81
2022/09/02 10:19:28;;;;;;;6.35;2.70;;;;;;;19.37;58.87;101512.22;5030422;28;20029;-82
2022/09/02 10:22:49;;;;;;;13.15;3.38;;;;;;;19.48;58.74;101506.16;5027942;28;20037;-82
2022/09/02 10:25:35;;;;;;;5.45;3.38;;;;;;;19.61;58.51;101506.19;4935201;28;20039;-82
2022/09/02 10:28:38;;;;;;;6.10;3.55;;;;;;;19.75;57.58;101498.16;5035389;28;20313;-82
2022/09/02 10:31:27;;;;;;;7.10;3.30;;;;;;;19.86;57.53;101502.69;5017476;28;20025;-82
2022/09/02 10:34:02;;;;;;;4.72;3.38;;;;;;;19.99;56.73;101483.25;5029391;28;20308;-82
2022/09/02 10:36:37;;;;;;;4.70;3.50;;;;;;;20.09;56.41;101490.47;5030742;28;20029;-82
2022/09/02 10:39:28;;;;;;;7.00;3.38;;;;;;;20.19;56.83;101479.16;5007679;28;20313;-82
2022/09/02 10:42:02;;;;;;;3.67;3.00;;;;;;;20.27;56.43;101482.16;5026655;28;20066;-82
2022/09/02 10:44:32;;;;;;;14.30;3.20;;;;;;;20.39;55.35;101485.72;5012265;28;20398;-82
2022/09/02 10:47:14;;;;;;;3.60;3.30;;;;;;;20.44;55.39;101483.59;5030243;28;20037;-82
2022/09/02 10:49:56;;;;;;;2.60;2.40;;;;;;;20.47;55.54;101488.69;5029899;28;20220;-82
2022/09/02 10:52:31;;;;;;;3.08;2.72;;;;;;;20.49;55.67;101489.44;5014520;28;20026;-82
2022/09/02 10:55:08;;;;;;;3.17;2.50;;;;;;;20.53;55.65;101478.44;5028760;28;20022;-82
2022/09/02 10:57:57;;;;;;;5.57;3.00;;;;;;;20.62;55.06;101476.13;5011673;28;20428;-82
2022/09/02 11:00:25;;;;;;;3.38;3.10;;;;;;;20.72;54.59;101479.81;5028590;28;20263;-82
2022/09/02 11:03:12;;;;;;;7.47;3.20;;;;;;;20.77;53.99;101477.63;5039291;28;20017;-82
2022/09/02 11:06:19;;;;;;;13.65;3.08;;;;;;;20.81;54.09;101473.81;5029762;28;20056;-82
2022/09/02 11:09:01;;;;;;;9.50;2.65;;;;;;;20.87;54.22;101465.34;5027929;28;20339;-82
2022/09/02 11:11:46;;;;;;;3.08;2.80;;;;;;;20.93;53.89;101468.53;5029215;28;20033;-82
2022/09/02 11:14:23;;;;;;;7.38;2.90;;;;;;;20.98;54.03;101463.72;5010431;28;20032;-81
2022/09/02 11:16:56;;;;;;;3.42;2.65;;;;;;;21.06;53.83;101463.97;5032093;28;20064;-82
2022/09/02 11:19:37;;;;;;;4.53;2.75;;;;;;;21.08;53.44;101454.06;5033863;28;20074;-81
2022/09/02 11:22:18;;;;;;;4.93;3.30;;;;;;;21.14;52.91;101450.94;5034696;28;20052;-81
2022/09/02 11:25:05;;;;;;;8.85;3.13;;;;;;;21.14;53.25;101447.41;5019725;28;20017;-81
2022/09/02 11:27:42;;;;;;;3.53;3.22;;;;;;;21.17;53.44;101440.03;5030183;28;20032;-81
2022/09/02 11:30:11;;;;;;;5.95;2.95;;;;;;;21.20;53.53;101442.47;5034471;28;20086;-81
2022/09/02 11:32:55;;;;;;;3.42;2.90;;;;;;;21.25;53.57;101437.66;5033259;28;20033;-81
2022/09/02 11:35:36;;;;;;;7.10;3.15;;;;;;;21.33;53.40;101431.72;5034342;28;20233;-81
2022/09/02 11:38:10;;;;;;;3.47;3.17;;;;;;;21.43;52.36;101432.72;5033736;28;20293;-81